createdAt,value
2022-11-24T00:01:41.752Z,92.90
2022-11-24T00:04:11.785Z,93.23
2022-11-24T00:06:39.742Z,93.36
2022-11-24T00:09:08.049Z,93.62
2022-11-24T00:11:36.711Z,93.81
2022-11-24T00:14:06.198Z,93.85
2022-11-24T00:16:36.614Z,93.69
2022-11-24T00:19:09.377Z,93.67
2022-11-24T00:21:38.346Z,93.70
2022-11-24T00:24:06.740Z,93.74
2022-11-24T00:26:39.552Z,93.72
2022-11-24T00:29:18.626Z,93.64
2022-11-24T00:31:46.534Z,93.75
2022-11-24T00:34:15.005Z,93.75
2022-11-24T00:36:43.461Z,93.83
2022-11-24T00:39:13.486Z,93.93
2022-11-24T00:41:42.855Z,93.87
2022-11-24T00:44:11.024Z,93.91
2022-11-24T00:46:39.422Z,94.00
2022-11-24T00:49:07.489Z,94.02
2022-11-24T00:51:35.404Z,93.96
2022-11-24T00:54:03.444Z,93.98
2022-11-24T00:56:31.541Z,94.13
2022-11-24T00:58:59.514Z,94.50
2022-11-24T01:01:30.344Z,94.71
2022-11-24T01:04:01.541Z,94.55
2022-11-24T01:06:31.027Z,94.45
2022-11-24T01:08:59.048Z,94.51
2022-11-24T01:12:05.535Z,94.88
2022-11-24T01:15:16.475Z,94.77
2022-11-24T01:17:56.407Z,95.00
2022-11-24T01:20:29.686Z,94.89
2022-11-24T01:23:10.433Z,94.86
2022-11-24T01:26:29.622Z,95.07
2022-11-24T01:30:17.576Z,95.23
2022-11-24T01:32:52.385Z,95.10
2022-11-24T01:35:31.866Z,94.97
2022-11-24T01:38:07.903Z,94.95
2022-11-24T01:40:39.618Z,94.97
2022-11-24T01:43:18.606Z,95.22
2022-11-24T01:46:29.664Z,95.61
2022-11-24T01:49:06.845Z,95.88
2022-11-24T01:51:39.677Z,96.09
2022-11-24T01:54:22.606Z,95.51
2022-11-24T01:56:56.088Z,95.28
2022-11-24T01:59:25.594Z,95.42
2022-11-24T02:01:55.019Z,95.39
2022-11-24T02:04:28.095Z,95.43
2022-11-24T02:06:59.880Z,95.37
2022-11-24T02:09:43.125Z,95.31
2022-11-24T02:12:11.629Z,95.29
2022-11-24T02:14:42.503Z,95.29
2022-11-24T02:17:10.699Z,95.60
2022-11-24T02:19:57.662Z,95.69
2022-11-24T02:22:44.619Z,95.57
2022-11-24T02:25:34.396Z,95.06
2022-11-24T02:28:08.961Z,94.85
2022-11-24T02:30:37.085Z,94.92
2022-11-24T02:33:05.101Z,95.07
2022-11-24T02:35:33.943Z,95.13
2022-11-24T02:38:01.897Z,95.11
2022-11-24T02:40:31.116Z,94.99
2022-11-24T02:43:05.958Z,94.81
2022-11-24T02:45:34.059Z,94.80
2022-11-24T02:48:02.006Z,94.87
2022-11-24T02:50:29.965Z,95.06
2022-11-24T02:52:57.883Z,95.16
2022-11-24T02:55:25.809Z,95.25
2022-11-24T02:57:53.722Z,95.34
2022-11-24T03:04:57.348Z,95.09
2022-11-24T03:07:25.421Z,95.34
2022-11-24T03:09:53.501Z,95.53
2022-11-24T03:12:21.563Z,95.66
2022-11-24T03:14:49.532Z,95.81
2022-11-24T03:17:17.524Z,95.98
2022-11-24T03:19:45.551Z,96.15
2022-11-24T03:22:14.266Z,96.20
2022-11-24T03:24:42.400Z,96.32
2022-11-24T03:27:10.330Z,96.62
2022-11-24T03:29:38.343Z,96.94
2022-11-24T03:32:06.375Z,97.00
2022-11-24T03:34:34.536Z,97.25
2022-11-24T03:37:02.795Z,97.71
2022-11-24T03:39:30.817Z,97.84
2022-11-24T03:41:58.859Z,98.07
2022-11-24T03:44:26.945Z,98.36
2022-11-24T03:46:54.920Z,98.37
2022-11-24T03:49:23.011Z,98.34
2022-11-24T03:51:51.010Z,97.97
2022-11-24T03:54:19.009Z,97.86
2022-11-24T03:56:47.658Z,98.01
2022-11-24T03:59:15.586Z,97.77
2022-11-24T04:01:43.553Z,97.86
2022-11-24T04:04:12.631Z,97.93
2022-11-24T04:06:41.082Z,97.94
2022-11-24T04:09:09.914Z,98.01
2022-11-24T04:12:07.000Z,97.99
2022-11-24T04:14:35.368Z,97.82
2022-11-24T04:17:04.628Z,97.75
2022-11-24T04:19:32.580Z,98.00
2022-11-24T04:22:00.572Z,98.20
2022-11-24T04:24:28.585Z,98.34
2022-11-24T04:26:56.541Z,98.09
2022-11-24T04:29:24.506Z,97.76
2022-11-24T04:31:52.497Z,97.34
2022-11-24T04:34:20.552Z,97.33
2022-11-24T04:36:48.461Z,97.16
2022-11-24T04:39:24.689Z,97.08
2022-11-24T04:41:55.313Z,97.34
2022-11-24T04:44:23.206Z,97.32
2022-11-24T04:46:51.278Z,97.10
2022-11-24T04:49:19.695Z,97.02
2022-11-24T04:51:47.573Z,96.97
2022-11-24T04:54:16.235Z,97.03
2022-11-24T04:56:44.260Z,97.20
2022-11-24T04:59:15.363Z,97.47
2022-11-24T05:01:43.911Z,97.55
2022-11-24T05:04:14.027Z,97.61
2022-11-24T05:06:42.186Z,97.60
2022-11-24T05:09:14.815Z,97.66
2022-11-24T05:11:43.968Z,97.67
2022-11-24T05:14:12.165Z,97.72
2022-11-24T05:16:40.837Z,97.82
2022-11-24T05:19:08.979Z,97.93
2022-11-24T05:21:37.106Z,98.15
2022-11-24T05:24:05.158Z,98.70
2022-11-24T05:26:35.624Z,98.68
2022-11-24T05:29:05.723Z,98.61
2022-11-24T05:31:34.257Z,98.59
2022-11-24T05:34:02.312Z,98.46
2022-11-24T05:36:48.890Z,98.15
2022-11-24T05:39:16.930Z,98.45
2022-11-24T05:41:45.339Z,98.63
2022-11-24T05:44:13.353Z,98.70
2022-11-24T05:46:41.421Z,98.63
2022-11-24T05:49:09.557Z,98.54
2022-11-24T05:51:37.480Z,98.36
2022-11-24T05:54:05.595Z,98.43
2022-11-24T05:56:33.463Z,98.57
2022-11-24T05:59:05.380Z,98.80
2022-11-24T06:01:36.424Z,99.33
2022-11-24T06:04:04.506Z,99.52
2022-11-24T06:06:32.464Z,99.60
2022-11-24T06:09:00.493Z,99.83
2022-11-24T06:11:28.666Z,100.00
2022-11-24T06:13:56.800Z,100.00
2022-11-24T06:16:25.015Z,100.00
2022-11-24T06:18:53.067Z,100.00
2022-11-24T06:21:21.209Z,100.00
2022-11-24T06:23:49.686Z,100.00
2022-11-24T06:26:18.391Z,100.00
2022-11-24T06:28:46.268Z,100.00
2022-11-24T06:31:14.314Z,100.00
2022-11-24T06:33:43.043Z,100.00
2022-11-24T06:36:14.948Z,100.00
2022-11-24T06:38:43.259Z,100.00
2022-11-24T06:41:15.864Z,100.00
2022-11-24T06:43:44.723Z,100.00
2022-11-24T06:46:13.302Z,100.00
2022-11-24T06:48:41.561Z,100.00
2022-11-24T06:51:13.081Z,100.00
2022-11-24T06:53:41.488Z,100.00
2022-11-24T06:56:16.381Z,100.00
2022-11-24T06:58:47.675Z,100.00
2022-11-24T07:01:27.138Z,100.00
2022-11-24T07:03:56.647Z,100.00
2022-11-24T07:06:26.487Z,100.00
2022-11-24T07:08:54.621Z,100.00
2022-11-24T07:11:24.116Z,100.00
2022-11-24T07:13:58.133Z,100.00
2022-11-24T07:16:28.792Z,100.00
2022-11-24T07:18:57.283Z,100.00
2022-11-24T07:21:26.698Z,100.00
2022-11-24T07:23:57.648Z,100.00
2022-11-24T07:26:26.555Z,100.00
2022-11-24T07:28:54.619Z,100.00
2022-11-24T07:31:26.506Z,100.00
2022-11-24T07:33:55.608Z,100.00
2022-11-24T07:36:24.657Z,100.00
2022-11-24T07:38:52.692Z,100.00
2022-11-24T07:41:20.847Z,100.00
2022-11-24T07:43:49.424Z,100.00
2022-11-24T07:46:19.837Z,100.00
2022-11-24T07:48:48.274Z,100.00
2022-11-24T07:51:16.251Z,100.00
2022-11-24T07:53:46.470Z,100.00
2022-11-24T07:56:14.528Z,100.00
2022-11-24T07:58:42.598Z,100.00
2022-11-24T08:01:11.757Z,100.00
2022-11-24T08:03:40.282Z,100.00
2022-11-24T08:06:24.979Z,100.00
2022-11-24T08:08:56.380Z,100.00
2022-11-24T08:11:25.108Z,100.00
2022-11-24T08:13:53.670Z,100.00
2022-11-24T08:16:21.765Z,100.00
2022-11-24T08:18:51.821Z,100.00
2022-11-24T08:21:21.183Z,100.00
2022-11-24T08:23:49.646Z,100.00
2022-11-24T08:26:19.431Z,100.00
2022-11-24T08:28:54.406Z,100.00
2022-11-24T08:31:22.388Z,100.00
2022-11-24T08:33:50.353Z,100.00
2022-11-24T08:36:19.546Z,100.00
2022-11-24T08:38:49.456Z,100.00
2022-11-24T08:41:17.648Z,100.00
2022-11-24T08:43:46.115Z,100.00
2022-11-24T08:46:19.112Z,100.00
2022-11-24T08:48:50.284Z,100.00
2022-11-24T08:51:21.183Z,100.00
2022-11-24T08:53:49.277Z,100.00
2022-11-24T08:56:17.213Z,100.00
2022-11-24T08:58:45.205Z,100.00
2022-11-24T09:01:15.604Z,100.00
2022-11-24T09:03:50.315Z,100.00
2022-11-24T09:06:23.076Z,100.00
2022-11-24T09:08:52.512Z,100.00
2022-11-24T09:11:21.572Z,100.00
2022-11-24T09:13:49.990Z,100.00
2022-11-24T09:16:20.540Z,100.00
2022-11-24T09:18:54.706Z,100.00
2022-11-24T09:21:22.963Z,100.00
2022-11-24T09:23:52.870Z,100.00
2022-11-24T09:26:23.744Z,100.00
2022-11-24T09:28:54.685Z,100.00
2022-11-24T09:31:26.115Z,100.00
2022-11-24T09:33:54.891Z,100.00
2022-11-24T09:36:23.916Z,100.00
2022-11-24T09:38:52.139Z,100.00
2022-11-24T09:41:49.521Z,100.00
2022-11-24T09:44:37.043Z,100.00
2022-11-24T09:47:29.444Z,100.00
2022-11-24T09:50:04.485Z,100.00
2022-11-24T09:52:44.571Z,100.00
2022-11-24T09:55:35.031Z,100.00
2022-11-24T09:58:25.044Z,100.00
2022-11-24T10:00:55.729Z,100.00
2022-11-24T10:03:32.423Z,100.00
2022-11-24T10:06:13.419Z,100.00
2022-11-24T10:09:03.515Z,100.00
2022-11-24T10:12:13.271Z,100.00
2022-11-24T10:14:47.308Z,100.00
2022-11-24T10:17:49.719Z,100.00
2022-11-24T10:20:27.280Z,100.00
2022-11-24T10:23:39.792Z,100.00
2022-11-24T10:26:15.847Z,100.00
2022-11-24T10:28:53.498Z,100.00
2022-11-24T10:31:38.457Z,100.00
2022-11-24T10:34:39.637Z,100.00
2022-11-24T10:37:10.557Z,100.00
2022-11-24T10:39:53.802Z,100.00
2022-11-24T10:42:32.384Z,100.00
2022-11-24T10:45:13.815Z,100.00
2022-11-24T10:47:43.616Z,100.00
2022-11-24T10:50:17.567Z,100.00
2022-11-24T10:52:51.334Z,99.99
2022-11-24T10:55:21.607Z,99.97
2022-11-24T10:57:49.948Z,99.86
2022-11-24T11:00:20.933Z,99.80
2022-11-24T11:02:50.890Z,99.71
2022-11-24T11:05:35.289Z,99.70
2022-11-24T11:08:26.640Z,99.68
2022-11-24T11:11:13.783Z,99.59
2022-11-24T11:13:51.776Z,99.51
2022-11-24T11:16:24.291Z,99.64
2022-11-24T11:18:52.992Z,99.75
2022-11-24T11:21:47.219Z,99.71
2022-11-24T11:24:18.443Z,99.71
2022-11-24T11:26:46.405Z,99.81
2022-11-24T11:35:16.052Z,99.86
2022-11-24T11:37:44.862Z,99.84
2022-11-24T11:40:26.631Z,99.94
2022-11-24T11:43:05.900Z,99.99
2022-11-24T11:45:40.375Z,100.00
2022-11-24T11:48:23.596Z,100.00
2022-11-24T11:54:05.738Z,100.00
2022-11-24T11:56:40.423Z,100.00
2022-11-24T11:59:23.474Z,100.00
2022-11-24T12:02:23.920Z,100.00
2022-11-24T12:05:12.426Z,100.00
2022-11-24T12:08:10.793Z,100.00
2022-11-24T12:11:25.521Z,100.00
2022-11-24T12:14:26.208Z,100.00
2022-11-24T12:17:07.379Z,100.00
2022-11-24T12:19:56.897Z,100.00
2022-11-24T12:22:49.501Z,100.00
2022-11-24T12:25:34.698Z,100.00
2022-11-24T12:28:30.511Z,100.00
2022-11-24T12:31:17.044Z,100.00
2022-11-24T12:34:01.198Z,100.00
2022-11-24T12:37:00.376Z,100.00
2022-11-24T12:40:03.970Z,100.00
2022-11-24T12:42:51.691Z,99.71
2022-11-24T12:45:46.914Z,99.07
2022-11-24T12:48:27.023Z,98.79
2022-11-24T12:50:56.740Z,99.14
2022-11-24T12:53:30.762Z,99.34
2022-11-24T12:56:06.095Z,99.27
2022-11-24T12:58:57.870Z,98.61
2022-11-24T13:01:53.472Z,98.70
2022-11-24T13:05:16.722Z,99.25
2022-11-24T13:07:47.697Z,99.83
2022-11-24T13:10:46.570Z,100.00
2022-11-24T13:13:14.768Z,99.98
2022-11-24T13:16:34.783Z,99.93
2022-11-24T13:19:09.345Z,99.89
2022-11-24T13:21:40.385Z,99.90
2022-11-24T13:24:19.217Z,99.79
2022-11-24T13:26:51.640Z,99.39
2022-11-24T13:29:33.745Z,99.05
2022-11-24T13:32:04.730Z,99.17
2022-11-24T13:34:45.936Z,99.12
2022-11-24T13:37:31.747Z,99.09
2022-11-24T13:40:23.955Z,99.28
2022-11-24T13:42:55.081Z,99.25
2022-11-24T13:45:39.389Z,99.24
2022-11-24T13:48:19.723Z,99.22
2022-11-24T13:50:51.442Z,99.37
2022-11-24T13:53:25.748Z,99.25
2022-11-24T13:56:02.937Z,99.42
2022-11-24T13:58:37.231Z,99.32
2022-11-24T14:01:30.351Z,99.53
2022-11-24T14:07:01.193Z,99.79
2022-11-24T14:09:44.880Z,99.70
2022-11-24T14:12:14.333Z,99.55
2022-11-24T14:14:44.492Z,99.64
2022-11-24T14:17:20.602Z,99.48
2022-11-24T14:19:53.963Z,99.40
2022-11-24T14:22:41.328Z,99.50
2022-11-24T14:25:22.975Z,99.54
2022-11-24T14:27:50.904Z,99.67
2022-11-24T14:30:22.327Z,99.75
2022-11-24T14:33:02.151Z,99.85
2022-11-24T14:35:32.795Z,99.99
2022-11-24T14:38:05.934Z,100.00
2022-11-24T14:40:49.978Z,100.00
2022-11-24T14:43:21.171Z,99.98
2022-11-24T14:45:54.186Z,99.93
2022-11-24T14:48:36.626Z,99.80
2022-11-24T14:51:15.503Z,99.89
2022-11-24T14:53:45.778Z,100.00
2022-11-24T14:56:23.045Z,100.00
2022-11-24T14:58:51.557Z,100.00
2022-11-24T15:01:28.351Z,100.00
2022-11-24T15:07:29.024Z,100.00
2022-11-24T15:09:59.934Z,100.00
2022-11-24T15:12:38.488Z,100.00
2022-11-24T15:15:15.326Z,100.00
2022-11-24T15:17:56.350Z,100.00
2022-11-24T15:20:37.919Z,100.00
2022-11-24T15:23:21.561Z,100.00
2022-11-24T15:25:54.580Z,100.00
2022-11-24T15:28:26.712Z,100.00
2022-11-24T15:30:57.121Z,100.00
2022-11-24T15:33:25.164Z,100.00
2022-11-24T15:35:53.994Z,99.82
2022-11-24T15:38:22.610Z,99.66
2022-11-24T15:40:52.811Z,99.76
2022-11-24T15:43:40.590Z,99.72
2022-11-24T15:46:09.422Z,99.48
2022-11-24T15:48:37.566Z,99.22
2022-11-24T15:51:14.107Z,98.96
2022-11-24T15:53:48.219Z,98.72
2022-11-24T15:56:22.418Z,98.70
2022-11-24T15:58:50.308Z,98.57
2022-11-24T16:01:18.342Z,98.47
2022-11-24T16:03:48.290Z,98.27
2022-11-24T16:06:24.156Z,98.22
2022-11-24T16:08:53.933Z,98.11
2022-11-24T16:11:22.816Z,98.12
2022-11-24T16:13:53.928Z,98.18
2022-11-24T16:16:25.327Z,98.18
2022-11-24T16:18:53.457Z,98.03
2022-11-24T16:21:21.548Z,97.91
2022-11-24T16:23:49.464Z,97.98
2022-11-24T16:26:17.384Z,97.99
2022-11-24T16:28:46.006Z,97.94
2022-11-24T16:31:16.249Z,98.04
2022-11-24T16:33:46.477Z,98.01
2022-11-24T16:36:15.317Z,98.00
2022-11-24T16:38:43.841Z,98.18
2022-11-24T16:41:12.093Z,98.36
2022-11-24T16:43:40.314Z,98.45
2022-11-24T16:46:17.525Z,98.37
2022-11-24T16:48:47.712Z,98.48
2022-11-24T16:51:17.471Z,98.44
2022-11-24T16:53:45.432Z,98.42
2022-11-24T16:56:14.784Z,98.64
2022-11-24T16:58:43.073Z,98.63
2022-11-24T17:01:13.769Z,98.87
2022-11-24T17:03:42.063Z,99.27
2022-11-24T17:06:12.872Z,99.67
2022-11-24T17:08:41.367Z,99.76
2022-11-24T17:11:21.226Z,99.78
2022-11-24T17:13:50.557Z,99.91
2022-11-24T17:16:21.298Z,99.56
2022-11-24T17:18:50.493Z,99.13
2022-11-24T17:21:24.175Z,99.34
2022-11-24T17:23:57.073Z,99.50
2022-11-24T17:26:26.252Z,99.56
2022-11-24T17:28:54.797Z,99.53
2022-11-24T17:31:39.811Z,99.45
2022-11-24T17:34:10.729Z,99.64
2022-11-24T17:36:39.963Z,99.80
2022-11-24T17:39:07.872Z,99.63
2022-11-24T17:41:36.120Z,99.36
2022-11-24T17:44:04.465Z,99.10
2022-11-24T17:46:32.482Z,99.22
2022-11-24T17:49:00.577Z,99.54
2022-11-24T17:51:28.662Z,99.77
2022-11-24T17:53:57.618Z,99.95
2022-11-24T17:56:27.895Z,99.79
2022-11-24T17:58:58.866Z,99.94
2022-11-24T18:01:31.633Z,100.00
2022-11-24T18:04:00.704Z,100.00
2022-11-24T18:06:29.072Z,99.97
2022-11-24T18:08:58.248Z,99.76
2022-11-24T18:11:31.666Z,99.93
2022-11-24T18:14:03.423Z,100.00
2022-11-24T18:16:34.741Z,100.00
2022-11-24T18:19:09.899Z,100.00
2022-11-24T18:21:44.814Z,100.00
2022-11-24T18:24:14.014Z,99.98
2022-11-24T18:26:42.754Z,100.00
2022-11-24T18:29:11.570Z,99.99
2022-11-24T18:31:40.320Z,100.00
2022-11-24T18:34:08.808Z,100.00
2022-11-24T18:36:36.789Z,100.00
2022-11-24T18:39:13.488Z,100.00
2022-11-24T18:41:43.438Z,100.00
2022-11-24T18:44:11.439Z,100.00
2022-11-24T18:46:42.410Z,100.00
2022-11-24T18:49:10.672Z,100.00
2022-11-24T18:51:38.722Z,100.00
2022-11-24T18:54:06.767Z,100.00
2022-11-24T18:56:34.775Z,100.00
2022-11-24T18:59:02.682Z,100.00
2022-11-24T19:01:30.890Z,100.00
2022-11-24T19:04:02.235Z,100.00
2022-11-24T19:06:32.765Z,100.00
2022-11-24T19:09:05.514Z,100.00
2022-11-24T19:11:36.210Z,100.00
2022-11-24T19:14:06.516Z,100.00
2022-11-24T19:16:35.120Z,100.00
2022-11-24T19:19:04.377Z,100.00
2022-11-24T19:21:37.688Z,100.00
2022-11-24T19:24:07.439Z,100.00
2022-11-24T19:26:35.557Z,100.00
2022-11-24T19:29:04.996Z,100.00
2022-11-24T19:31:33.831Z,100.00
2022-11-24T19:34:04.340Z,100.00
2022-11-24T19:36:36.018Z,100.00
2022-11-24T19:39:05.367Z,100.00
2022-11-24T19:41:34.456Z,100.00
2022-11-24T19:44:02.502Z,100.00
2022-11-24T19:46:31.181Z,100.00
2022-11-24T19:49:01.324Z,100.00
2022-11-24T19:51:31.759Z,100.00
2022-11-24T19:54:00.721Z,100.00
2022-11-24T19:56:31.391Z,100.00
2022-11-24T19:58:59.491Z,100.00
2022-11-24T20:01:30.649Z,100.00
2022-11-24T20:04:01.350Z,100.00
2022-11-24T20:06:32.238Z,100.00
2022-11-24T20:09:01.564Z,100.00
2022-11-24T20:11:30.171Z,100.00
2022-11-24T20:13:58.826Z,100.00
2022-11-24T20:16:30.124Z,100.00
2022-11-24T20:19:00.782Z,100.00
2022-11-24T20:21:33.144Z,100.00
2022-11-24T20:24:04.332Z,100.00
2022-11-24T20:26:36.670Z,100.00
2022-11-24T20:29:05.918Z,100.00
2022-11-24T20:31:39.361Z,100.00
2022-11-24T20:34:08.667Z,100.00
2022-11-24T20:36:39.847Z,100.00
2022-11-24T20:39:12.042Z,100.00
2022-11-24T20:41:40.332Z,100.00
2022-11-24T20:44:13.654Z,100.00
2022-11-24T20:46:43.460Z,100.00
2022-11-24T20:49:15.126Z,100.00
2022-11-24T20:51:44.386Z,100.00
2022-11-24T20:54:13.654Z,100.00
2022-11-24T20:56:44.729Z,100.00
2022-11-24T20:59:19.043Z,100.00
2022-11-24T21:01:47.872Z,100.00
2022-11-24T21:04:19.678Z,100.00
2022-11-24T21:06:47.890Z,100.00
2022-11-24T21:09:16.187Z,100.00
2022-11-24T21:11:44.728Z,100.00
2022-11-24T21:14:13.262Z,100.00
2022-11-24T21:16:42.755Z,100.00
2022-11-24T21:19:13.493Z,100.00
2022-11-24T21:21:42.913Z,100.00
2022-11-24T21:24:17.133Z,100.00
2022-11-24T21:26:51.333Z,100.00
2022-11-24T21:29:22.645Z,100.00
2022-11-24T21:31:51.052Z,100.00
2022-11-24T21:34:19.640Z,100.00
2022-11-24T21:36:48.006Z,100.00
2022-11-24T21:39:16.535Z,100.00
2022-11-24T21:41:44.848Z,100.00
2022-11-24T21:44:14.361Z,100.00
2022-11-24T21:46:48.198Z,100.00
2022-11-24T21:49:20.759Z,100.00
2022-11-24T21:51:55.457Z,100.00
2022-11-24T21:54:23.929Z,100.00
2022-11-24T21:56:53.366Z,100.00
2022-11-24T21:59:22.288Z,100.00
2022-11-24T22:01:50.923Z,100.00
2022-11-24T22:04:19.029Z,100.00
2022-11-24T22:06:47.069Z,100.00
2022-11-24T22:09:18.155Z,100.00
2022-11-24T22:11:49.481Z,100.00
2022-11-24T22:14:17.980Z,100.00
2022-11-24T22:16:46.387Z,100.00
2022-11-24T22:19:14.948Z,100.00
2022-11-24T22:21:43.140Z,100.00
2022-11-24T22:24:11.469Z,100.00
2022-11-24T22:26:39.542Z,100.00
2022-11-24T22:29:08.449Z,100.00
2022-11-24T22:31:36.423Z,100.00
2022-11-24T22:34:05.035Z,100.00
2022-11-24T22:36:33.332Z,100.00
2022-11-24T22:39:03.849Z,100.00
2022-11-24T22:41:34.234Z,100.00
2022-11-24T22:44:02.794Z,100.00
2022-11-24T22:46:32.280Z,100.00
2022-11-24T22:49:01.890Z,100.00
2022-11-24T22:51:33.262Z,100.00
2022-11-24T22:54:03.792Z,100.00
2022-11-24T22:56:33.429Z,100.00
2022-11-24T22:59:02.520Z,100.00
2022-11-24T23:01:33.747Z,100.00
2022-11-24T23:04:02.637Z,100.00
2022-11-24T23:06:32.369Z,100.00
2022-11-24T23:09:02.015Z,100.00
2022-11-24T23:11:37.647Z,100.00
2022-11-24T23:14:08.858Z,100.00
2022-11-24T23:16:36.896Z,100.00
2022-11-24T23:19:05.546Z,100.00
2022-11-24T23:21:36.281Z,100.00
2022-11-24T23:24:05.711Z,100.00
2022-11-24T23:26:40.979Z,100.00
2022-11-24T23:29:10.754Z,100.00
2022-11-24T23:31:41.616Z,100.00
2022-11-24T23:34:10.009Z,100.00
2022-11-24T23:36:38.124Z,100.00
2022-11-24T23:39:08.910Z,100.00
2022-11-24T23:41:36.930Z,100.00
2022-11-24T23:44:05.962Z,100.00
2022-11-24T23:46:34.186Z,100.00
2022-11-24T23:49:02.145Z,100.00
2022-11-24T23:51:32.342Z,100.00
2022-11-24T23:54:01.455Z,100.00
2022-11-24T23:56:32.944Z,100.00
2022-11-24T23:59:03.290Z,100.00
